createdAt,value
2023-04-19T00:00:02.352Z,88.631
2023-04-19T00:01:02.673Z,88.623
2023-04-19T00:02:01.979Z,88.572
2023-04-19T00:03:03.148Z,88.732
2023-04-19T00:04:02.523Z,88.476
2023-04-19T00:05:02.215Z,88.549
2023-04-19T00:08:02.196Z,88.543
2023-04-19T00:09:02.419Z,88.568
2023-04-19T00:10:02.580Z,88.631
2023-04-19T00:11:01.732Z,88.751
2023-04-19T00:12:01.927Z,88.547
2023-04-19T00:13:02.059Z,88.623
2023-04-19T00:14:02.256Z,88.610
2023-04-19T00:15:01.909Z,88.497
2023-04-19T00:16:02.116Z,88.524
2023-04-19T00:17:02.824Z,88.427
2023-04-19T00:18:02.241Z,88.518
2023-04-19T00:19:02.416Z,88.450
2023-04-19T00:20:01.745Z,88.457
2023-04-19T00:21:01.924Z,88.471
2023-04-19T00:22:02.186Z,88.388
2023-04-19T00:23:02.429Z,88.356
2023-04-19T00:24:01.626Z,88.123
2023-04-19T00:25:02.007Z,87.925
2023-04-19T00:26:02.185Z,88.051
2023-04-19T00:27:02.484Z,87.997
2023-04-19T00:29:01.901Z,87.889
2023-04-19T00:30:02.252Z,87.984
2023-04-19T00:31:02.653Z,87.927
2023-04-19T00:32:02.126Z,87.914
2023-04-19T00:33:02.463Z,87.986
2023-04-19T00:34:01.700Z,88.017
2023-04-19T00:35:02.275Z,88.106
2023-04-19T00:36:02.577Z,88.211
2023-04-19T00:37:01.839Z,88.118
2023-04-19T00:38:02.059Z,88.175
2023-04-19T00:39:02.244Z,88.245
2023-04-19T00:40:02.639Z,88.131
2023-04-19T00:41:01.796Z,87.923
2023-04-19T00:42:02.004Z,88.110
2023-04-19T00:43:02.220Z,88.150
2023-04-19T00:44:02.438Z,88.265
2023-04-19T00:45:01.754Z,88.198
2023-04-19T00:46:01.995Z,88.291
2023-04-19T00:47:02.632Z,88.051
2023-04-19T00:48:01.906Z,88.009
2023-04-19T00:49:02.363Z,88.257
2023-04-19T00:50:02.559Z,88.333
2023-04-19T00:51:01.676Z,88.245
2023-04-19T00:52:01.908Z,88.186
2023-04-19T00:53:02.156Z,88.116
2023-04-19T00:54:02.313Z,87.952
2023-04-19T00:55:01.834Z,87.816
2023-04-19T00:56:02.025Z,87.885
2023-04-19T00:57:02.250Z,88.129
2023-04-19T00:58:02.358Z,88.232
2023-04-19T00:59:02.519Z,88.432
2023-04-19T01:00:01.711Z,88.505
2023-04-19T01:01:02.039Z,88.583
2023-04-19T01:02:02.618Z,88.999
2023-04-19T01:03:02.501Z,88.926
2023-04-19T01:04:02.851Z,89.119
2023-04-19T01:06:02.566Z,89.531
2023-04-19T01:07:01.723Z,89.457
2023-04-19T01:08:01.972Z,89.809
2023-04-19T01:09:02.224Z,90.168
2023-04-19T01:10:02.587Z,90.189
2023-04-19T01:11:01.959Z,90.199
2023-04-19T01:12:02.575Z,90.490
2023-04-19T01:13:01.756Z,90.721
2023-04-19T01:14:01.913Z,90.672
2023-04-19T01:15:02.543Z,90.374
2023-04-19T01:16:01.957Z,90.651
2023-04-19T01:17:02.270Z,91.116
2023-04-19T01:18:02.858Z,90.748
2023-04-19T01:19:02.060Z,90.529
2023-04-19T01:20:02.281Z,90.401
2023-04-19T01:21:02.531Z,90.757
2023-04-19T01:22:01.742Z,90.651
2023-04-19T01:23:02.121Z,90.313
2023-04-19T01:24:02.396Z,90.494
2023-04-19T01:25:01.871Z,90.792
2023-04-19T01:26:02.057Z,90.427
2023-04-19T01:27:02.365Z,90.786
2023-04-19T01:28:02.582Z,90.712
2023-04-19T01:29:01.867Z,90.530
2023-04-19T01:30:02.104Z,90.326
2023-04-19T01:31:02.435Z,90.860
2023-04-19T01:32:01.948Z,91.122
2023-04-19T01:33:02.380Z,90.742
2023-04-19T01:34:02.616Z,90.489
2023-04-19T01:35:01.888Z,90.901
2023-04-19T01:36:02.184Z,91.171
2023-04-19T01:37:02.351Z,91.669
2023-04-19T01:38:02.616Z,91.784
2023-04-19T01:39:01.795Z,91.852
2023-04-19T01:40:02.116Z,91.789
2023-04-19T01:41:02.551Z,91.642
2023-04-19T01:42:01.681Z,92.045
2023-04-19T01:43:01.946Z,92.194
2023-04-19T01:44:02.151Z,91.972
2023-04-19T01:45:01.781Z,91.799
2023-04-19T01:46:01.933Z,92.062
2023-04-19T01:47:02.364Z,92.247
2023-04-19T01:48:01.715Z,92.192
2023-04-19T01:49:01.898Z,92.377
2023-04-19T01:50:02.154Z,91.866
2023-04-19T01:51:02.386Z,92.201
2023-04-19T01:52:02.596Z,92.377
2023-04-19T01:53:01.775Z,92.505
2023-04-19T01:54:02.096Z,92.608
2023-04-19T01:56:01.943Z,92.684
2023-04-19T01:57:02.097Z,92.598
2023-04-19T01:58:02.309Z,92.749
2023-04-19T01:59:02.548Z,93.208
2023-04-19T02:00:01.629Z,93.052
2023-04-19T02:01:02.162Z,92.850
2023-04-19T02:02:01.923Z,93.008
2023-04-19T02:03:02.683Z,92.714
2023-04-19T02:04:02.009Z,92.526
2023-04-19T02:05:02.135Z,92.301
2023-04-19T02:06:02.326Z,92.459
2023-04-19T02:07:02.545Z,92.190
2023-04-19T02:08:01.677Z,92.056
2023-04-19T02:09:01.946Z,92.047
2023-04-19T02:10:02.175Z,91.894
2023-04-19T02:11:02.327Z,91.829
2023-04-19T02:12:02.569Z,91.709
2023-04-19T02:13:01.752Z,91.744
2023-04-19T02:14:01.923Z,91.501
2023-04-19T02:15:01.704Z,91.656
2023-04-19T02:16:02.248Z,91.541
2023-04-19T02:17:02.656Z,91.593
2023-04-19T02:18:01.895Z,91.450
2023-04-19T02:19:02.088Z,91.679
2023-04-19T02:20:02.383Z,91.536
2023-04-19T02:21:01.660Z,91.724
2023-04-19T02:22:01.936Z,91.601
2023-04-19T02:23:02.287Z,91.759
2023-04-19T02:24:02.429Z,91.574
2023-04-19T02:25:02.135Z,91.698
2023-04-19T02:26:02.422Z,91.564
2023-04-19T02:27:02.618Z,91.616
2023-04-19T02:28:01.796Z,91.580
2023-04-19T02:29:01.960Z,91.644
2023-04-19T02:30:02.250Z,91.820
2023-04-19T02:31:02.621Z,91.801
2023-04-19T02:32:02.320Z,92.007
2023-04-19T02:33:02.939Z,92.035
2023-04-19T02:34:02.221Z,92.335
2023-04-19T02:35:01.951Z,92.461
2023-04-19T02:36:02.156Z,92.604
2023-04-19T02:37:02.548Z,92.613
2023-04-19T02:38:01.772Z,92.661
2023-04-19T02:39:01.971Z,92.754
2023-04-19T02:40:02.187Z,92.693
2023-04-19T02:41:02.497Z,92.726
2023-04-19T02:42:01.783Z,92.892
2023-04-19T02:43:02.075Z,92.999
2023-04-19T02:44:02.341Z,93.134
2023-04-19T02:45:02.030Z,93.319
2023-04-19T02:46:02.404Z,93.147
2023-04-19T02:47:01.784Z,93.247
2023-04-19T02:48:02.276Z,93.275
2023-04-19T02:49:02.651Z,93.636
2023-04-19T02:50:01.795Z,93.544
2023-04-19T02:51:02.017Z,93.922
2023-04-19T02:52:02.285Z,94.139
2023-04-19T02:53:02.458Z,94.242
2023-04-19T02:54:01.686Z,94.242
2023-04-19T02:55:02.331Z,94.305
2023-04-19T02:56:02.635Z,94.185
2023-04-19T02:57:01.832Z,94.092
2023-04-19T02:58:02.085Z,94.431
2023-04-19T02:59:02.254Z,94.383
2023-04-19T03:00:02.502Z,94.381
2023-04-19T03:01:01.859Z,94.248
2023-04-19T03:02:02.589Z,94.370
2023-04-19T03:03:01.924Z,94.362
2023-04-19T03:04:02.745Z,94.076
2023-04-19T03:06:01.859Z,94.074
2023-04-19T03:07:02.171Z,94.383
2023-04-19T03:08:03.604Z,94.536
2023-04-19T03:10:02.032Z,94.511
2023-04-19T03:11:02.264Z,94.767
2023-04-19T03:12:02.488Z,94.723
2023-04-19T03:13:01.811Z,94.898
2023-04-19T03:14:01.999Z,94.935
2023-04-19T03:15:01.623Z,95.011
2023-04-19T03:16:01.910Z,94.954
2023-04-19T03:17:02.300Z,95.072
2023-04-19T03:18:03.020Z,95.106
2023-04-19T03:19:02.239Z,94.938
2023-04-19T03:20:02.547Z,95.188
2023-04-19T03:21:01.737Z,95.024
2023-04-19T03:22:01.898Z,95.347
2023-04-19T03:23:02.076Z,95.423
2023-04-19T03:24:02.370Z,95.396
2023-04-19T03:25:01.701Z,95.469
2023-04-19T03:26:01.883Z,95.528
2023-04-19T03:27:02.076Z,95.738
2023-04-19T03:28:02.369Z,95.862
2023-04-19T03:29:02.550Z,95.932
2023-04-19T03:31:01.864Z,95.875
2023-04-19T03:32:02.299Z,95.993
2023-04-19T03:33:02.722Z,95.976
2023-04-19T03:34:01.880Z,95.864
2023-04-19T03:35:02.542Z,96.024
2023-04-19T03:36:01.805Z,95.974
2023-04-19T03:37:02.052Z,95.820
2023-04-19T03:38:02.279Z,95.701
2023-04-19T03:39:02.624Z,95.852
2023-04-19T03:40:01.700Z,95.850
2023-04-19T03:41:02.139Z,95.772
2023-04-19T03:42:02.399Z,95.801
2023-04-19T03:43:02.623Z,95.865
2023-04-19T03:44:01.769Z,95.963
2023-04-19T03:45:02.523Z,96.125
2023-04-19T03:46:01.969Z,96.087
2023-04-19T03:47:02.487Z,96.081
2023-04-19T03:48:03.072Z,96.249
2023-04-19T03:49:02.419Z,96.146
2023-04-19T03:50:02.592Z,96.129
2023-04-19T03:51:01.708Z,96.056
2023-04-19T03:52:01.809Z,96.012
2023-04-19T03:53:01.986Z,95.974
2023-04-19T03:54:02.155Z,95.974
2023-04-19T03:55:01.676Z,95.953
2023-04-19T03:56:01.867Z,95.902
2023-04-19T03:57:01.998Z,95.841
2023-04-19T03:58:02.243Z,96.089
2023-04-19T03:59:02.475Z,95.967
2023-04-19T04:00:01.644Z,95.917
2023-04-19T04:01:01.932Z,95.911
2023-04-19T04:02:02.401Z,95.867
2023-04-19T04:03:02.185Z,95.862
2023-04-19T04:04:06.377Z,95.814
2023-04-19T04:05:02.272Z,95.812
2023-04-19T04:09:02.486Z,95.797
2023-04-19T04:10:01.679Z,95.650
2023-04-19T04:11:01.955Z,95.596
2023-04-19T04:12:02.154Z,95.446
2023-04-19T04:13:02.334Z,95.436
2023-04-19T04:14:02.532Z,95.411
2023-04-19T04:15:01.974Z,95.381
2023-04-19T04:16:02.256Z,95.366
2023-04-19T04:17:01.608Z,95.207
2023-04-19T04:18:02.052Z,95.326
2023-04-19T04:19:02.334Z,95.284
2023-04-19T04:20:02.576Z,95.236
2023-04-19T04:21:01.796Z,95.036
2023-04-19T04:22:02.031Z,94.935
2023-04-19T04:23:02.200Z,94.570
2023-04-19T04:24:02.370Z,94.536
2023-04-19T04:25:02.651Z,94.353
2023-04-19T04:26:02.211Z,94.244
2023-04-19T04:27:02.548Z,94.225
2023-04-19T04:28:01.695Z,94.206
2023-04-19T04:29:01.853Z,94.191
2023-04-19T04:30:02.072Z,94.301
2023-04-19T04:31:02.255Z,94.170
2023-04-19T04:32:01.989Z,93.918
2023-04-19T04:33:02.396Z,93.941
2023-04-19T04:34:02.663Z,93.777
2023-04-19T04:35:02.188Z,93.960
2023-04-19T04:36:02.439Z,94.095
2023-04-19T04:37:02.664Z,94.063
2023-04-19T04:38:04.527Z,94.071
2023-04-19T04:39:02.016Z,94.162
2023-04-19T04:40:02.149Z,94.277
2023-04-19T04:41:02.338Z,94.286
2023-04-19T04:42:02.364Z,94.271
2023-04-19T04:43:02.558Z,94.162
2023-04-19T04:44:12.369Z,94.208
2023-04-19T04:46:02.816Z,94.237
2023-04-19T04:47:02.142Z,94.206
2023-04-19T04:48:02.520Z,94.345
2023-04-19T04:49:01.726Z,94.315
2023-04-19T04:50:02.016Z,94.402
2023-04-19T04:51:02.215Z,94.347
2023-04-19T04:52:02.495Z,94.427
2023-04-19T04:53:01.704Z,94.402
2023-04-19T04:54:01.969Z,94.332
2023-04-19T04:55:02.483Z,94.147
2023-04-19T04:56:01.671Z,94.238
2023-04-19T04:57:02.119Z,94.185
2023-04-19T04:58:02.276Z,94.151
2023-04-19T04:59:01.946Z,94.002
2023-04-19T05:00:02.143Z,93.908
2023-04-19T05:01:02.583Z,93.865
2023-04-19T05:02:02.426Z,93.838
2023-04-19T05:03:01.942Z,93.851
2023-04-19T05:04:02.636Z,93.901
2023-04-19T05:05:02.692Z,93.784
2023-04-19T05:06:03.806Z,93.651
2023-04-19T05:08:02.145Z,93.346
2023-04-19T05:09:02.299Z,93.355
2023-04-19T05:10:02.434Z,93.239
2023-04-19T05:11:02.656Z,93.207
2023-04-19T05:12:01.806Z,93.100
2023-04-19T05:13:02.006Z,93.226
2023-04-19T05:14:02.212Z,93.516
2023-04-19T05:15:02.616Z,93.638
2023-04-19T05:16:01.999Z,93.563
2023-04-19T05:17:02.440Z,93.640
2023-04-19T05:18:01.607Z,93.584
2023-04-19T05:19:01.897Z,93.638
2023-04-19T05:20:02.179Z,93.813
2023-04-19T05:21:02.344Z,93.701
2023-04-19T05:22:02.569Z,93.569
2023-04-19T05:23:01.730Z,93.496
2023-04-19T05:24:01.892Z,93.496
2023-04-19T05:25:02.495Z,93.460
2023-04-19T05:26:01.947Z,93.464
2023-04-19T05:27:02.163Z,93.493
2023-04-19T05:28:02.300Z,93.470
2023-04-19T05:29:02.515Z,93.447
2023-04-19T05:30:01.664Z,93.317
2023-04-19T05:31:02.115Z,93.384
2023-04-19T05:32:02.511Z,93.245
2023-04-19T05:33:01.991Z,93.197
2023-04-19T05:34:02.290Z,93.048
2023-04-19T05:35:01.677Z,92.768
2023-04-19T05:36:01.955Z,92.789
2023-04-19T05:37:02.159Z,92.890
2023-04-19T05:38:02.437Z,92.949
2023-04-19T05:39:01.753Z,92.789
2023-04-19T05:40:01.975Z,92.909
2023-04-19T05:41:02.179Z,92.890
2023-04-19T05:42:02.316Z,92.960
2023-04-19T05:43:02.632Z,92.901
2023-04-19T05:44:01.834Z,92.917
2023-04-19T05:45:03.381Z,92.949
2023-04-19T05:46:01.948Z,92.838
2023-04-19T05:47:02.251Z,92.857
2023-04-19T05:48:02.613Z,92.739
2023-04-19T05:49:01.745Z,92.829
2023-04-19T05:50:02.271Z,92.631
2023-04-19T05:51:02.489Z,92.405
2023-04-19T05:52:01.656Z,92.198
2023-04-19T05:53:01.921Z,92.190
2023-04-19T05:54:02.206Z,92.150
2023-04-19T05:55:02.611Z,91.843
2023-04-19T05:56:01.904Z,91.778
2023-04-19T05:57:02.190Z,91.835
2023-04-19T05:58:02.459Z,91.621
2023-04-19T05:59:01.612Z,91.591
2023-04-19T06:00:02.239Z,91.498
2023-04-19T06:01:01.878Z,91.360
2023-04-19T06:02:02.325Z,91.480
2023-04-19T06:03:02.660Z,91.639
2023-04-19T06:04:02.019Z,91.593
2023-04-19T06:05:08.116Z,91.353
2023-04-19T06:07:04.489Z,91.242
2023-04-19T06:09:02.668Z,91.292
2023-04-19T06:11:23.185Z,91.236
2023-04-19T06:13:10.547Z,91.053
2023-04-19T06:14:09.838Z,91.093
2023-04-19T06:15:09.984Z,91.164
2023-04-19T06:16:10.262Z,91.183
2023-04-19T06:17:09.656Z,90.986
2023-04-19T06:18:10.459Z,90.950
2023-04-19T06:19:10.646Z,90.920
2023-04-19T06:20:09.888Z,90.897
2023-04-19T06:21:10.029Z,90.778
2023-04-19T06:22:10.376Z,90.424
2023-04-19T06:23:10.556Z,90.485
2023-04-19T06:24:09.799Z,90.410
2023-04-19T06:25:10.023Z,90.269
2023-04-19T06:26:10.245Z,90.323
2023-04-19T06:27:10.457Z,90.246
2023-04-19T06:28:10.631Z,90.147
2023-04-19T06:29:09.851Z,90.086
2023-04-19T06:30:10.024Z,90.090
2023-04-19T06:31:10.360Z,90.021
2023-04-19T06:32:09.695Z,89.981
2023-04-19T06:33:10.007Z,89.897
2023-04-19T06:34:10.228Z,89.966
2023-04-19T06:35:10.543Z,90.002
2023-04-19T06:36:09.784Z,90.036
2023-04-19T06:37:10.017Z,89.989
2023-04-19T06:38:11.049Z,90.012
2023-04-19T06:39:10.230Z,89.840
2023-04-19T06:40:10.433Z,89.977
2023-04-19T06:43:10.281Z,89.880
2023-04-19T06:44:10.766Z,89.809
2023-04-19T06:45:10.068Z,89.470
2023-04-19T06:46:10.489Z,89.565
2023-04-19T06:47:10.056Z,89.668
2023-04-19T06:48:10.516Z,89.432
2023-04-19T06:49:09.773Z,89.380
2023-04-19T06:50:09.902Z,89.340
2023-04-19T06:51:10.387Z,89.056
2023-04-19T06:52:10.608Z,89.333
2023-04-19T06:53:09.910Z,89.027
2023-04-19T06:54:10.317Z,88.781
2023-04-19T06:55:10.500Z,88.606
2023-04-19T06:56:09.613Z,88.663
2023-04-19T06:57:09.905Z,88.261
2023-04-19T06:58:10.112Z,88.203
2023-04-19T06:59:10.359Z,88.181
2023-04-19T07:00:10.903Z,88.129
2023-04-19T07:01:10.266Z,88.108
2023-04-19T07:02:09.829Z,87.944
2023-04-19T07:03:10.886Z,87.877
2023-04-19T07:05:10.386Z,87.608
2023-04-19T07:06:10.635Z,86.950
2023-04-19T07:07:09.898Z,87.074
2023-04-19T07:08:10.280Z,87.023
2023-04-19T07:10:13.275Z,87.290
2023-04-19T07:11:13.575Z,87.278
2023-04-19T07:12:13.074Z,87.576
2023-04-19T07:13:13.352Z,87.320
2023-04-19T07:14:12.633Z,87.185
2023-04-19T07:15:12.830Z,87.046
2023-04-19T07:16:13.124Z,87.160
2023-04-19T07:17:13.616Z,87.389
2023-04-19T07:18:12.871Z,87.404
2023-04-19T07:19:13.294Z,87.099
2023-04-19T07:20:13.592Z,86.529
2023-04-19T07:21:12.842Z,86.603
2023-04-19T07:22:15.784Z,86.870
2023-04-19T07:23:12.972Z,87.029
2023-04-19T07:24:13.199Z,86.706
2023-04-19T07:25:13.456Z,86.773
2023-04-19T07:26:12.802Z,86.882
2023-04-19T07:27:13.401Z,86.731
2023-04-19T07:28:13.629Z,86.590
2023-04-19T07:29:14.184Z,86.309
2023-04-19T07:30:13.494Z,86.208
2023-04-19T07:31:12.688Z,86.180
2023-04-19T07:32:13.151Z,86.317
2023-04-19T07:33:13.013Z,86.674
2023-04-19T07:34:13.359Z,86.699
2023-04-19T07:35:13.674Z,86.754
2023-04-19T07:36:13.122Z,86.767
2023-04-19T07:37:13.334Z,86.679
2023-04-19T07:38:13.567Z,87.114
2023-04-19T07:39:12.760Z,87.069
2023-04-19T07:40:13.214Z,86.855
2023-04-19T07:41:13.620Z,86.960
2023-04-19T07:42:12.918Z,87.086
2023-04-19T07:43:13.096Z,86.910
2023-04-19T07:44:13.419Z,86.977
2023-04-19T07:45:12.642Z,87.034
2023-04-19T07:46:12.861Z,86.662
2023-04-19T07:47:13.321Z,86.327
2023-04-19T07:48:13.788Z,86.224
2023-04-19T07:49:12.991Z,86.241
2023-04-19T07:50:13.253Z,86.479
2023-04-19T07:51:13.480Z,85.953
2023-04-19T07:52:12.720Z,86.164
2023-04-19T07:53:12.904Z,86.634
2023-04-19T07:54:13.114Z,86.943
2023-04-19T07:55:13.905Z,87.963
2023-04-19T07:56:14.613Z,88.671
2023-04-19T07:57:12.841Z,88.488
2023-04-19T07:58:13.105Z,88.289
2023-04-19T07:59:17.863Z,88.972
2023-04-19T08:01:13.575Z,88.224
2023-04-19T08:02:13.062Z,88.562
2023-04-19T08:03:13.762Z,88.850
2023-04-19T08:04:13.352Z,88.945
2023-04-19T08:05:13.575Z,88.865
2023-04-19T08:06:12.889Z,88.619
2023-04-19T08:07:13.079Z,88.530
2023-04-19T08:08:13.575Z,87.849
2023-04-19T08:09:12.774Z,88.255
2023-04-19T08:10:13.567Z,88.263
2023-04-19T08:11:12.791Z,88.108
2023-04-19T08:12:30.563Z,87.345
2023-04-19T08:14:44.047Z,86.491
2023-04-19T08:17:11.316Z,86.020
2023-04-19T08:18:52.204Z,86.285
2023-04-19T08:19:52.362Z,86.744
2023-04-19T08:20:52.728Z,86.966
2023-04-19T08:21:51.955Z,86.222
2023-04-19T08:22:52.285Z,86.531
2023-04-19T08:24:55.380Z,86.824
2023-04-19T08:25:55.629Z,86.344
2023-04-19T08:26:54.865Z,86.573
2023-04-19T08:27:55.073Z,86.807
2023-04-19T08:28:55.460Z,87.172
2023-04-19T08:29:54.716Z,87.605
2023-04-19T08:30:54.937Z,87.227
2023-04-19T08:31:55.350Z,87.853
2023-04-19T08:32:57.344Z,87.856
2023-04-19T08:34:55.329Z,87.658
2023-04-19T08:35:55.520Z,87.603
2023-04-19T08:37:03.770Z,87.236
2023-04-19T08:37:54.668Z,86.556
2023-04-19T08:39:05.650Z,85.838
2023-04-19T08:41:02.667Z,85.758
2023-04-19T08:42:24.404Z,85.833
2023-04-19T08:44:10.253Z,86.071
2023-04-19T08:47:17.689Z,85.171
2023-04-19T08:49:13.610Z,85.218
2023-04-19T08:50:28.793Z,85.091
2023-04-19T08:52:25.713Z,84.381
2023-04-19T08:53:29.609Z,84.585
2023-04-19T08:55:25.197Z,84.717
2023-04-19T08:57:26.265Z,84.202
2023-04-19T08:58:46.416Z,84.459
2023-04-19T09:00:44.200Z,84.223
2023-04-19T09:01:47.603Z,84.002
2023-04-19T09:03:55.941Z,83.546
2023-04-19T09:05:52.743Z,83.195
2023-04-19T09:06:51.704Z,83.124
2023-04-19T09:07:51.936Z,83.269
2023-04-19T09:08:52.122Z,82.985
2023-04-19T09:10:02.629Z,83.155
2023-04-19T09:11:51.954Z,83.033
2023-04-19T09:12:52.164Z,82.748
2023-04-19T09:13:54.302Z,83.292
2023-04-19T09:15:01.554Z,82.445
2023-04-19T09:15:52.416Z,82.638
2023-04-19T09:16:51.797Z,82.529
2023-04-19T09:17:52.219Z,82.542
2023-04-19T09:19:08.467Z,82.348
2023-04-19T09:20:58.166Z,82.552
2023-04-19T09:21:58.401Z,82.373
2023-04-19T09:22:57.632Z,82.722
2023-04-19T09:23:57.823Z,82.788
2023-04-19T09:27:07.045Z,82.336
2023-04-19T09:28:07.573Z,82.506
2023-04-19T09:29:06.774Z,82.443
2023-04-19T09:30:08.213Z,82.457
2023-04-19T09:32:13.542Z,81.869
2023-04-19T09:33:13.223Z,81.669
2023-04-19T09:34:12.833Z,81.968
2023-04-19T09:35:13.060Z,81.602
2023-04-19T09:36:15.714Z,81.406
2023-04-19T09:37:32.872Z,81.247
2023-04-19T09:39:21.888Z,80.013
2023-04-19T09:40:22.128Z,81.087
2023-04-19T09:41:22.366Z,80.728
2023-04-19T09:42:36.319Z,79.796
2023-04-19T09:46:38.920Z,79.111
2023-04-19T09:47:38.650Z,78.718
2023-04-19T09:49:49.346Z,78.113
2023-04-19T09:51:52.982Z,74.682
2023-04-19T09:52:52.161Z,74.411
2023-04-19T09:53:52.355Z,75.750
2023-04-19T09:54:52.616Z,74.943
2023-04-19T09:56:57.089Z,74.745
2023-04-19T09:59:17.373Z,75.731
2023-04-19T10:01:14.665Z,75.308
2023-04-19T10:03:00.412Z,74.850
2023-04-19T10:04:14.775Z,74.303
2023-04-19T10:08:19.273Z,72.796
2023-04-19T10:09:18.783Z,72.275
2023-04-19T10:11:21.420Z,71.234
2023-04-19T10:12:46.014Z,69.433
2023-04-19T10:14:36.005Z,68.556
2023-04-19T10:17:44.158Z,62.778
2023-04-19T10:18:44.604Z,64.357
2023-04-19T10:19:43.838Z,63.160
2023-04-19T10:20:44.095Z,65.906
2023-04-19T10:21:44.591Z,67.438
2023-04-19T10:22:43.923Z,67.781
2023-04-19T10:23:44.283Z,69.265
2023-04-19T10:24:47.282Z,68.514
2023-04-19T10:25:44.365Z,69.969
2023-04-19T10:26:44.541Z,69.824
2023-04-19T10:27:47.924Z,69.668
2023-04-19T10:29:44.409Z,65.994
2023-04-19T10:30:43.840Z,66.129
2023-04-19T10:31:44.262Z,65.410
2023-04-19T10:32:43.762Z,65.368
2023-04-19T10:33:44.125Z,65.578
2023-04-19T10:34:44.494Z,65.815
2023-04-19T10:35:43.929Z,62.414
2023-04-19T10:37:44.076Z,64.878
2023-04-19T10:38:44.293Z,65.361
2023-04-19T10:39:44.561Z,59.309
2023-04-19T10:40:43.854Z,57.241
2023-04-19T10:41:44.169Z,55.727
2023-04-19T10:42:44.373Z,54.966
2023-04-19T10:43:43.802Z,56.619
2023-04-19T10:44:44.128Z,59.684
2023-04-19T10:45:44.335Z,59.593
2023-04-19T10:46:44.055Z,59.400
2023-04-19T10:47:44.414Z,57.983
2023-04-19T10:48:43.956Z,57.802
2023-04-19T10:49:44.342Z,56.556
2023-04-19T10:50:44.632Z,54.592
2023-04-19T10:51:44.128Z,53.926
2023-04-19T10:52:44.329Z,54.216
2023-04-19T10:53:44.533Z,53.997
2023-04-19T10:54:43.839Z,53.571
2023-04-19T10:55:44.191Z,53.060
2023-04-19T10:56:44.428Z,52.082
2023-04-19T10:57:44.172Z,51.860
2023-04-19T10:59:43.759Z,50.268
2023-04-19T11:00:43.625Z,51.750
2023-04-19T11:01:43.698Z,51.523
2023-04-19T11:02:44.364Z,51.576
2023-04-19T11:03:44.212Z,50.712
2023-04-19T11:04:44.476Z,52.017
2023-04-19T11:05:44.392Z,51.256
2023-04-19T11:06:44.403Z,50.073
2023-04-19T11:07:43.526Z,49.577
2023-04-19T11:08:44.371Z,50.062
2023-04-19T11:09:44.175Z,50.655
2023-04-19T11:10:44.095Z,49.323
2023-04-19T11:11:44.040Z,48.892
2023-04-19T11:12:43.744Z,48.664
2023-04-19T11:13:43.549Z,48.362
2023-04-19T11:14:44.495Z,47.700
2023-04-19T11:15:44.343Z,48.353
2023-04-19T11:16:48.685Z,49.438
2023-04-19T11:19:44.095Z,48.877
2023-04-19T11:20:43.973Z,48.438
2023-04-19T11:21:43.792Z,48.263
2023-04-19T11:22:43.818Z,46.567
2023-04-19T11:23:43.624Z,47.109
2023-04-19T11:24:43.484Z,48.236
2023-04-19T11:25:44.308Z,48.728
2023-04-19T11:26:44.288Z,49.325
2023-04-19T11:27:44.194Z,48.932
2023-04-19T11:28:44.036Z,49.047
2023-04-19T11:30:43.542Z,48.782
2023-04-19T11:31:43.744Z,49.041
2023-04-19T11:33:43.516Z,48.391
2023-04-19T11:34:44.364Z,46.268
2023-04-19T11:35:44.115Z,46.226
2023-04-19T11:36:43.957Z,45.932
2023-04-19T11:38:43.476Z,44.406
2023-04-19T11:39:44.290Z,43.815
2023-04-19T11:40:44.440Z,44.135
2023-04-19T11:41:44.339Z,43.281
2023-04-19T11:42:44.134Z,41.858
2023-04-19T11:43:44.632Z,42.697
2023-04-19T11:46:44.454Z,44.055
2023-04-19T11:47:43.603Z,42.806
2023-04-19T11:48:43.887Z,42.526
2023-04-19T11:49:43.627Z,41.333
2023-04-19T11:50:43.616Z,41.494
2023-04-19T11:51:43.644Z,39.640
2023-04-19T11:52:44.202Z,39.504
2023-04-19T11:53:43.760Z,38.593
2023-04-19T11:54:43.638Z,39.460
2023-04-19T11:55:44.494Z,40.952
2023-04-19T11:56:44.396Z,40.782
2023-04-19T11:57:44.444Z,41.614
2023-04-19T11:58:44.526Z,40.910
2023-04-19T11:59:44.280Z,40.859
2023-04-19T12:00:44.108Z,39.743
2023-04-19T12:01:44.324Z,39.598
2023-04-19T12:02:44.507Z,38.640
2023-04-19T12:05:45.038Z,38.514
2023-04-19T12:06:43.537Z,38.165
2023-04-19T12:07:44.347Z,39.256
2023-04-19T12:08:44.209Z,39.230
2023-04-19T12:09:44.033Z,38.003
2023-04-19T12:10:43.939Z,39.537
2023-04-19T12:11:43.722Z,38.516
2023-04-19T12:13:44.273Z,38.854
2023-04-19T12:14:44.040Z,37.917
2023-04-19T12:15:47.065Z,36.905
2023-04-19T12:18:44.401Z,37.326
2023-04-19T12:19:44.164Z,37.381
2023-04-19T12:20:44.026Z,38.272
2023-04-19T12:21:43.947Z,38.001
2023-04-19T12:22:44.135Z,38.894
2023-04-19T12:23:43.970Z,39.289
2023-04-19T12:25:43.773Z,37.191
2023-04-19T12:28:43.877Z,37.313
2023-04-19T12:29:43.768Z,37.212
2023-04-19T12:30:44.301Z,37.343
2023-04-19T12:31:44.206Z,36.296
2023-04-19T12:32:44.796Z,36.803
2023-04-19T12:34:43.568Z,37.011
2023-04-19T12:35:44.515Z,36.815
2023-04-19T12:36:44.325Z,36.971
2023-04-19T12:38:44.083Z,35.985
2023-04-19T12:39:43.926Z,34.944
2023-04-19T12:40:43.768Z,33.591
2023-04-19T12:41:43.603Z,33.271
2023-04-19T12:43:44.415Z,32.296
2023-04-19T12:44:44.379Z,32.672
2023-04-19T12:45:44.237Z,32.893
2023-04-19T12:46:44.327Z,32.729
2023-04-19T12:47:44.391Z,33.204
2023-04-19T12:48:43.459Z,34.213
2023-04-19T12:49:44.374Z,33.876
2023-04-19T12:50:44.237Z,34.114
2023-04-19T12:51:44.103Z,35.138
2023-04-19T12:52:44.143Z,34.394
2023-04-19T12:54:43.668Z,33.425
2023-04-19T12:55:43.432Z,33.036
2023-04-19T12:56:43.493Z,33.748
2023-04-19T12:57:44.146Z,33.557
2023-04-19T12:58:43.880Z,32.994
2023-04-19T12:59:43.704Z,33.611
2023-04-19T13:00:43.573Z,32.813
2023-04-19T13:01:43.740Z,33.422
2023-04-19T13:02:44.272Z,32.331
2023-04-19T13:03:44.360Z,32.493
2023-04-19T13:04:44.576Z,33.324
2023-04-19T13:05:44.203Z,32.870
2023-04-19T13:06:44.037Z,33.437
2023-04-19T13:07:43.995Z,33.509
2023-04-19T13:08:49.692Z,33.199
2023-04-19T13:10:46.048Z,33.286
2023-04-19T13:11:45.921Z,33.244
2023-04-19T13:12:45.729Z,33.214
2023-04-19T13:15:45.629Z,34.774
2023-04-19T13:16:45.583Z,33.664
2023-04-19T13:17:46.779Z,33.597
2023-04-19T13:18:45.847Z,33.689
2023-04-19T13:19:45.963Z,34.152
2023-04-19T13:20:45.796Z,33.490
2023-04-19T13:21:45.699Z,33.368
2023-04-19T13:22:45.484Z,31.755
2023-04-19T13:23:45.571Z,32.355
2023-04-19T13:24:46.467Z,32.968
2023-04-19T13:25:46.268Z,32.239
2023-04-19T13:26:46.591Z,33.466
2023-04-19T13:27:46.039Z,33.149
2023-04-19T13:28:45.871Z,34.789
2023-04-19T13:30:45.600Z,33.954
2023-04-19T13:31:46.562Z,34.661
2023-04-19T13:32:45.501Z,34.377
2023-04-19T13:33:46.050Z,34.944
2023-04-19T13:35:45.755Z,34.293
2023-04-19T13:36:45.950Z,35.169
2023-04-19T13:37:45.944Z,35.167
2023-04-19T13:38:45.740Z,35.274
2023-04-19T13:39:45.558Z,34.433
2023-04-19T13:41:48.101Z,34.038
2023-04-19T13:42:48.012Z,33.679
2023-04-19T13:43:48.128Z,34.583
2023-04-19T13:44:49.423Z,34.208
2023-04-19T13:45:48.328Z,33.944
2023-04-19T13:46:48.226Z,34.053
2023-04-19T13:47:48.371Z,33.088
2023-04-19T13:48:48.672Z,34.007
2023-04-19T13:49:47.459Z,35.217
2023-04-19T13:50:51.094Z,36.866
2023-04-19T13:51:53.215Z,37.158
2023-04-19T13:53:48.156Z,38.081
2023-04-19T13:54:47.996Z,38.394
2023-04-19T13:56:49.292Z,37.294
2023-04-19T13:57:48.349Z,36.107
2023-04-19T13:58:48.193Z,35.657
2023-04-19T13:59:48.035Z,34.961
2023-04-19T14:00:48.417Z,34.572
2023-04-19T14:01:47.685Z,34.740